CheckWX is a tool to help pilots better visualize weather data.  It is not intended as a substitute for an official pre-flight weather briefing.

04:26:21 UTC

HEMA METAR
Marsa Alam International Airport
Marsa Alam, Egypt
Current

1 hour ago

HEMA 270300Z 34008KT CAVOK 33/12 Q1006 NOSIG
Observed
Jun-27 @ 03:00 UTC
Wind
  • 340° at 8 KTS
Visibility
10,000+ meters
Flight Rules
VFR
Cloud Levels
  • Clear skies
Temperature
33°C / 91°F
Dewpoint
12°C / 54°F
Humidity
28%
Altimeter
29.7" Hg
Pressure
1005.92 hPa
Previous

2 hours ago

HEMA 270200Z 33009KT CAVOK 34/13 Q1005 NOSIG
Observed
Jun-27 @ 02:00 UTC
Wind
  • 330° at 9 KTS
Visibility
10,000+ meters
Flight Rules
VFR
Cloud Levels
  • Clear skies
Temperature
34°C / 93°F
Dewpoint
13°C / 55°F
Humidity
28%
Altimeter
29.68" Hg
Pressure
1004.92 hPa
Previous

3 hours ago

HEMA 270100Z 29010KT CAVOK 36/08 Q1006 NOSIG
Observed
Jun-27 @ 01:00 UTC
Wind
  • 290° at 10 KTS
Visibility
10,000+ meters
Flight Rules
VFR
Cloud Levels
  • Clear skies
Temperature
36°C / 97°F
Dewpoint
C / 46°F
Humidity
18%
Altimeter
29.7" Hg
Pressure
1005.92 hPa